createdAt,value
2018-03-07T00:01:22.911Z,98.90
2018-03-07T00:03:56.704Z,98.90
2018-03-07T00:06:30.366Z,99.20
2018-03-07T00:09:04.278Z,99.50
2018-03-07T00:11:37.851Z,99.50
2018-03-07T00:14:11.564Z,99.60
2018-03-07T00:16:45.551Z,99.50
2018-03-07T00:19:19.367Z,99.70
2018-03-07T00:21:52.895Z,99.50
2018-03-07T00:24:26.801Z,99.70
2018-03-07T00:27:01.419Z,99.90
2018-03-07T00:29:35.096Z,99.90
2018-03-07T00:32:08.635Z,99.70
2018-03-07T00:34:42.270Z,99.60
2018-03-07T00:37:16.776Z,99.50
2018-03-07T00:39:51.500Z,99.40
2018-03-07T00:42:25.992Z,99.30
2018-03-07T00:44:59.611Z,99.30
2018-03-07T00:47:34.195Z,99.10
2018-03-07T00:50:08.728Z,99.20
2018-03-07T00:52:43.264Z,99.10
2018-03-07T00:55:17.811Z,99.40
2018-03-07T00:57:51.403Z,99.40
2018-03-07T01:00:25.020Z,99.50
2018-03-07T01:02:58.715Z,99.60
2018-03-07T01:05:32.364Z,99.40
2018-03-07T01:08:06.263Z,99.80
2018-03-07T01:10:40.680Z,99.90
2018-03-07T01:13:14.236Z,99.90
2018-03-07T01:15:48.318Z,99.90
2018-03-07T01:18:22.687Z,99.90
2018-03-07T01:20:57.099Z,99.90
2018-03-07T01:23:30.854Z,99.90
2018-03-07T01:26:04.479Z,99.90
2018-03-07T01:28:38.379Z,99.90
2018-03-07T01:31:12.067Z,99.90
2018-03-07T01:33:46.611Z,99.90
2018-03-07T01:36:21.248Z,99.90
2018-03-07T01:38:54.950Z,99.90
2018-03-07T01:41:29.476Z,99.90
2018-03-07T01:44:03.198Z,99.90
2018-03-07T01:46:37.029Z,99.90
2018-03-07T01:49:10.782Z,99.90
2018-03-07T01:51:56.567Z,99.90
2018-03-07T01:54:31.115Z,99.90
2018-03-07T01:57:04.941Z,99.90
2018-03-07T01:59:39.384Z,99.90
2018-03-07T02:02:13.248Z,99.90
2018-03-07T02:04:47.195Z,99.90
2018-03-07T02:07:21.478Z,99.90
2018-03-07T02:09:55.468Z,99.90
2018-03-07T02:12:29.922Z,99.90
2018-03-07T02:15:04.632Z,99.90
2018-03-07T02:17:38.373Z,99.90
2018-03-07T02:20:11.935Z,99.90
2018-03-07T02:22:45.624Z,99.90
2018-03-07T02:25:19.125Z,99.90
2018-03-07T02:27:52.859Z,99.90
2018-03-07T02:30:27.323Z,99.90
2018-03-07T02:33:01.692Z,99.90
2018-03-07T02:35:36.299Z,99.90
2018-03-07T02:38:10.128Z,99.90
2018-03-07T02:40:43.887Z,99.90
2018-03-07T02:43:17.539Z,99.90
2018-03-07T02:45:51.101Z,99.90
2018-03-07T02:48:25.119Z,99.90
2018-03-07T02:50:58.664Z,99.90
2018-03-07T02:53:32.558Z,99.90
2018-03-07T02:56:06.368Z,99.90
2018-03-07T02:58:40.192Z,99.90
2018-03-07T03:01:14.004Z,99.90
2018-03-07T03:03:48.529Z,99.90
2018-03-07T03:06:22.350Z,99.90
2018-03-07T03:08:56.028Z,99.90
2018-03-07T03:11:30.758Z,99.90
2018-03-07T03:14:04.440Z,99.90
2018-03-07T03:16:38.930Z,99.90
2018-03-07T03:19:12.520Z,99.90
2018-03-07T03:21:47.024Z,99.90
2018-03-07T03:24:30.658Z,99.90
2018-03-07T03:27:04.463Z,99.90
2018-03-07T03:29:38.152Z,99.90
2018-03-07T03:32:12.785Z,99.90
2018-03-07T03:34:46.469Z,99.90
2018-03-07T03:37:20.271Z,99.90
2018-03-07T03:39:53.951Z,99.90
2018-03-07T03:42:27.676Z,99.90
2018-03-07T03:45:01.377Z,99.90
2018-03-07T03:47:34.995Z,99.90
2018-03-07T03:50:18.412Z,99.90
2018-03-07T03:52:52.052Z,99.90
2018-03-07T03:55:25.799Z,99.90
2018-03-07T03:57:59.616Z,99.90
2018-03-07T04:00:33.400Z,99.90
2018-03-07T04:03:07.140Z,99.90
2018-03-07T04:05:40.927Z,99.90
2018-03-07T04:08:15.551Z,99.90
2018-03-07T04:10:50.042Z,99.90
2018-03-07T04:13:23.986Z,99.90
2018-03-07T04:15:57.544Z,99.90
2018-03-07T04:18:31.682Z,99.90
2018-03-07T04:21:05.540Z,99.90
2018-03-07T04:23:39.879Z,99.90
2018-03-07T04:26:13.451Z,99.90
2018-03-07T04:28:47.051Z,99.90
2018-03-07T04:31:21.532Z,99.90
2018-03-07T04:33:55.515Z,99.90
2018-03-07T04:36:29.448Z,99.90
2018-03-07T04:39:03.159Z,99.90
2018-03-07T04:41:36.948Z,99.90
2018-03-07T04:44:11.445Z,99.90
2018-03-07T04:46:45.929Z,99.90
2018-03-07T04:49:19.742Z,99.90
2018-03-07T04:51:53.375Z,99.90
2018-03-07T04:54:28.064Z,99.90
2018-03-07T04:57:02.442Z,99.90
2018-03-07T04:59:36.721Z,99.90
2018-03-07T05:02:10.447Z,99.90
2018-03-07T05:04:44.391Z,99.90
2018-03-07T05:07:17.941Z,99.90
2018-03-07T05:09:51.582Z,99.90
2018-03-07T05:12:26.215Z,99.90
2018-03-07T05:14:59.824Z,99.90
2018-03-07T05:17:33.596Z,99.90
2018-03-07T05:20:07.211Z,99.90
2018-03-07T05:22:40.765Z,99.90
2018-03-07T05:25:14.593Z,99.90
2018-03-07T05:27:49.307Z,99.90
2018-03-07T05:30:23.869Z,99.90
2018-03-07T05:32:57.679Z,99.90
2018-03-07T05:35:32.312Z,99.90
2018-03-07T05:38:06.103Z,99.90
2018-03-07T05:40:40.090Z,99.90
2018-03-07T05:43:14.106Z,99.90
2018-03-07T05:45:47.931Z,99.90
2018-03-07T05:48:23.363Z,99.90
2018-03-07T05:50:58.193Z,99.90
2018-03-07T05:53:31.994Z,99.90
2018-03-07T05:56:05.821Z,99.90
2018-03-07T05:58:39.812Z,99.90
2018-03-07T06:01:14.027Z,99.90
2018-03-07T06:03:48.767Z,99.90
2018-03-07T06:06:22.511Z,99.90
2018-03-07T06:08:56.882Z,99.90
2018-03-07T06:11:32.351Z,99.90
2018-03-07T06:14:06.225Z,99.90
2018-03-07T06:16:40.747Z,99.90
2018-03-07T06:19:15.316Z,99.90
2018-03-07T06:21:50.114Z,99.90
2018-03-07T06:24:25.040Z,99.90
2018-03-07T06:26:59.041Z,99.90
2018-03-07T06:29:34.421Z,99.90
2018-03-07T06:32:08.939Z,99.90
2018-03-07T06:34:44.312Z,99.90
2018-03-07T06:37:18.876Z,99.90
2018-03-07T06:39:53.457Z,99.90
2018-03-07T06:42:28.110Z,99.90
2018-03-07T06:45:03.556Z,99.90
2018-03-07T06:47:37.461Z,99.90
2018-03-07T06:50:12.132Z,99.90
2018-03-07T06:52:46.519Z,99.90
2018-03-07T06:55:20.225Z,99.90
2018-03-07T06:57:55.048Z,99.90
2018-03-07T07:00:29.711Z,99.90
2018-03-07T07:03:03.371Z,99.90
2018-03-07T07:05:38.152Z,99.90
2018-03-07T07:08:12.581Z,99.90
2018-03-07T07:10:46.428Z,99.90
2018-03-07T07:13:20.379Z,99.90
2018-03-07T07:15:54.749Z,99.90
2018-03-07T07:18:29.648Z,99.90
2018-03-07T07:21:03.332Z,99.90
2018-03-07T07:23:37.784Z,99.90
2018-03-07T07:26:12.196Z,99.90
2018-03-07T07:28:45.952Z,99.90
2018-03-07T07:31:19.517Z,99.90
2018-03-07T07:33:54.085Z,99.90
2018-03-07T07:36:27.671Z,99.90
2018-03-07T07:39:02.009Z,99.90
2018-03-07T07:41:35.510Z,99.90
2018-03-07T07:44:09.262Z,99.90
2018-03-07T07:46:43.062Z,99.90
2018-03-07T07:49:16.771Z,99.90
2018-03-07T07:51:51.215Z,99.50
2018-03-07T07:54:25.795Z,99.70
2018-03-07T07:57:00.347Z,99.40
2018-03-07T07:59:34.062Z,99.40
2018-03-07T08:02:07.648Z,99.10
2018-03-07T08:04:42.360Z,98.50
2018-03-07T08:07:16.106Z,98.50
2018-03-07T08:09:49.598Z,98.40
2018-03-07T08:12:23.971Z,97.90
2018-03-07T08:14:57.748Z,97.80
2018-03-07T08:17:31.446Z,97.90
2018-03-07T08:20:06.004Z,97.60
2018-03-07T08:22:39.671Z,97.50
2018-03-07T08:25:13.627Z,98.10
2018-03-07T08:27:47.975Z,97.10
2018-03-07T08:30:21.764Z,97.00
2018-03-07T08:32:56.055Z,96.80
2018-03-07T08:35:30.636Z,96.00
2018-03-07T08:38:04.300Z,95.90
2018-03-07T08:40:37.968Z,96.30
2018-03-07T08:43:11.527Z,95.10
2018-03-07T08:45:45.950Z,94.20
2018-03-07T08:48:20.468Z,93.70
2018-03-07T08:50:54.041Z,93.70
2018-03-07T08:53:27.739Z,92.60
2018-03-07T08:56:02.273Z,91.70
2018-03-07T08:58:36.780Z,91.20
2018-03-07T09:01:11.907Z,90.50
2018-03-07T09:03:46.244Z,90.70
2018-03-07T09:06:20.630Z,86.50
2018-03-07T09:08:54.429Z,86.50
2018-03-07T09:11:28.239Z,85.90
2018-03-07T09:14:01.817Z,80.70
2018-03-07T09:16:35.406Z,80.60
2018-03-07T09:19:09.716Z,81.50
2018-03-07T09:21:44.281Z,79.10
2018-03-07T09:24:17.802Z,79.10
2018-03-07T09:26:52.211Z,78.50
2018-03-07T09:29:25.940Z,78.30
2018-03-07T09:31:59.691Z,77.70
2018-03-07T09:34:34.238Z,78.10
2018-03-07T09:37:07.837Z,78.10
2018-03-07T09:39:41.533Z,78.40
2018-03-07T09:42:15.278Z,78.70
2018-03-07T09:44:48.720Z,77.80
2018-03-07T09:47:22.971Z,75.10
2018-03-07T09:49:56.529Z,75.10
2018-03-07T09:52:30.848Z,76.20
2018-03-07T09:55:05.243Z,76.30
2018-03-07T09:57:38.972Z,76.20
2018-03-07T10:00:13.527Z,75.40
2018-03-07T10:02:47.404Z,75.40
2018-03-07T10:05:21.088Z,75.30
2018-03-07T10:07:55.437Z,76.20
2018-03-07T10:10:29.052Z,76.10
2018-03-07T10:13:02.780Z,76.90
2018-03-07T10:15:36.412Z,75.80
2018-03-07T10:18:10.874Z,74.50
2018-03-07T10:20:45.472Z,73.60
2018-03-07T10:23:19.293Z,73.60
2018-03-07T10:25:53.756Z,72.00
2018-03-07T10:28:28.239Z,72.50
2018-03-07T10:31:01.746Z,72.40
2018-03-07T10:33:35.531Z,73.30
2018-03-07T10:36:09.300Z,73.10
2018-03-07T10:38:42.832Z,71.80
2018-03-07T10:41:17.552Z,69.30
2018-03-07T10:43:51.361Z,69.30
2018-03-07T10:46:25.150Z,67.50
2018-03-07T10:48:59.676Z,60.90
2018-03-07T10:51:33.505Z,60.90
2018-03-07T10:54:07.316Z,61.20
2018-03-07T10:56:42.552Z,65.70
2018-03-07T10:59:16.199Z,65.70
2018-03-07T11:01:49.991Z,65.10
2018-03-07T11:04:23.736Z,65.30
2018-03-07T11:06:57.331Z,63.20
2018-03-07T11:09:32.008Z,59.70
2018-03-07T11:12:05.686Z,59.80
2018-03-07T11:14:39.512Z,58.50
2018-03-07T11:17:14.180Z,59.40
2018-03-07T11:19:48.536Z,58.70
2018-03-07T11:22:22.125Z,58.70
2018-03-07T11:24:56.519Z,58.10
2018-03-07T11:27:30.286Z,58.10
2018-03-07T11:30:05.735Z,58.00
2018-03-07T11:32:39.405Z,58.10
2018-03-07T11:35:14.137Z,58.10
2018-03-07T11:37:47.758Z,58.10
2018-03-07T11:40:22.060Z,57.80
2018-03-07T11:42:56.469Z,57.50
2018-03-07T11:45:31.060Z,57.70
2018-03-07T11:48:04.567Z,57.60
2018-03-07T11:50:38.323Z,58.00
2018-03-07T11:53:12.594Z,58.70
2018-03-07T11:55:46.198Z,58.60
2018-03-07T11:58:19.872Z,59.40
2018-03-07T12:00:53.814Z,60.10
2018-03-07T12:03:27.515Z,60.20
2018-03-07T12:06:02.081Z,59.30
2018-03-07T12:08:37.017Z,59.50
2018-03-07T12:11:10.612Z,59.50
2018-03-07T12:13:44.959Z,59.40
2018-03-07T12:16:18.877Z,59.40
2018-03-07T12:18:53.535Z,58.80
2018-03-07T12:21:27.137Z,58.70
2018-03-07T12:24:01.604Z,59.10
2018-03-07T12:26:35.324Z,59.10
2018-03-07T12:29:09.087Z,58.10
2018-03-07T12:31:42.720Z,56.70
2018-03-07T12:34:17.870Z,57.50
2018-03-07T12:36:51.443Z,57.50
2018-03-07T12:39:25.930Z,58.00
2018-03-07T12:41:59.690Z,58.00
2018-03-07T12:44:33.377Z,58.20
2018-03-07T12:47:07.996Z,55.80
2018-03-07T12:49:41.824Z,55.80
2018-03-07T12:52:15.476Z,55.30
2018-03-07T12:54:50.142Z,56.00
2018-03-07T12:57:24.739Z,53.00
2018-03-07T12:59:58.585Z,53.00
2018-03-07T13:02:33.077Z,55.20
2018-03-07T13:05:06.905Z,55.20
2018-03-07T13:07:40.692Z,54.60
2018-03-07T13:10:14.344Z,55.10
2018-03-07T13:12:48.362Z,56.90
2018-03-07T13:15:22.813Z,58.60
2018-03-07T13:17:56.656Z,58.60
2018-03-07T13:20:31.152Z,59.00
2018-03-07T13:23:04.862Z,59.00
2018-03-07T13:25:39.280Z,58.30
2018-03-07T13:28:13.131Z,58.30
2018-03-07T13:30:47.604Z,58.10
2018-03-07T13:33:21.348Z,58.00
2018-03-07T13:35:55.829Z,57.20
2018-03-07T13:38:30.203Z,55.80
2018-03-07T13:41:04.655Z,55.80
2018-03-07T13:43:38.357Z,55.80
2018-03-07T13:46:12.775Z,55.50
2018-03-07T13:48:47.321Z,55.10
2018-03-07T13:51:21.877Z,55.70
2018-03-07T13:53:55.528Z,55.60
2018-03-07T13:56:29.522Z,54.50
2018-03-07T13:59:03.980Z,56.00
2018-03-07T14:01:37.524Z,55.90
2018-03-07T14:04:12.190Z,56.80
2018-03-07T14:06:46.769Z,55.80
2018-03-07T14:09:21.195Z,55.80
2018-03-07T14:11:55.711Z,57.40
2018-03-07T14:14:30.304Z,56.40
2018-03-07T14:17:04.777Z,56.30
2018-03-07T14:19:38.580Z,56.30
2018-03-07T14:22:13.173Z,57.30
2018-03-07T14:24:47.738Z,57.60
2018-03-07T14:27:22.251Z,57.20
2018-03-07T14:29:57.588Z,56.40
2018-03-07T14:32:31.495Z,56.40
2018-03-07T14:35:06.229Z,56.10
2018-03-07T14:37:40.402Z,56.10
2018-03-07T14:40:14.022Z,54.30
2018-03-07T14:42:47.670Z,53.20
2018-03-07T14:45:22.437Z,54.60
2018-03-07T14:47:57.170Z,54.80
2018-03-07T14:50:30.972Z,54.80
2018-03-07T14:53:04.793Z,53.70
2018-03-07T14:55:38.710Z,52.90
2018-03-07T14:58:13.033Z,52.40
2018-03-07T15:00:46.584Z,52.40
2018-03-07T15:03:20.184Z,52.80
2018-03-07T15:05:53.943Z,53.00
2018-03-07T15:08:27.856Z,52.50
2018-03-07T15:11:01.847Z,52.70
2018-03-07T15:13:35.503Z,52.30
2018-03-07T15:16:09.084Z,51.80
2018-03-07T15:18:42.636Z,52.90
2018-03-07T15:21:16.640Z,52.60
2018-03-07T15:23:51.163Z,54.30
2018-03-07T15:26:25.886Z,55.00
2018-03-07T15:29:00.320Z,55.00
2018-03-07T15:31:34.216Z,55.10
2018-03-07T15:34:08.539Z,54.70
2018-03-07T15:36:42.149Z,55.20
2018-03-07T15:39:17.169Z,52.90
2018-03-07T15:41:51.069Z,52.90
2018-03-07T15:44:25.492Z,54.80
2018-03-07T15:46:59.419Z,54.90
2018-03-07T15:49:34.219Z,55.60
2018-03-07T15:52:08.817Z,55.80
2018-03-07T15:54:42.549Z,55.80
2018-03-07T15:57:16.764Z,55.80
2018-03-07T15:59:50.796Z,55.70
2018-03-07T16:02:24.580Z,56.20
2018-03-07T16:04:58.389Z,55.80
2018-03-07T16:07:32.782Z,58.30
2018-03-07T16:10:07.041Z,58.30
2018-03-07T16:12:41.144Z,58.60
2018-03-07T16:15:15.041Z,58.10
2018-03-07T16:17:50.593Z,59.50
2018-03-07T16:20:25.227Z,59.20
2018-03-07T16:23:00.569Z,59.20
2018-03-07T16:25:34.445Z,59.80
2018-03-07T16:28:09.269Z,60.10
2018-03-07T16:30:43.700Z,60.00
2018-03-07T16:33:19.048Z,61.00
2018-03-07T16:35:53.776Z,61.00
2018-03-07T16:38:29.416Z,61.60
2018-03-07T16:41:04.246Z,61.80
2018-03-07T16:43:38.964Z,62.40
2018-03-07T16:46:13.511Z,62.40
2018-03-07T16:48:48.420Z,62.60
2018-03-07T16:51:23.144Z,62.90
2018-03-07T16:53:57.177Z,62.70
2018-03-07T16:56:31.904Z,64.60
2018-03-07T16:59:06.701Z,64.60
2018-03-07T17:01:41.684Z,64.70
2018-03-07T17:04:15.450Z,65.50
2018-03-07T17:06:50.295Z,66.10
2018-03-07T17:09:23.884Z,65.90
2018-03-07T17:11:58.606Z,66.50
2018-03-07T17:14:33.224Z,66.30
2018-03-07T17:17:08.053Z,66.40
2018-03-07T17:19:42.903Z,66.00
2018-03-07T17:22:17.692Z,66.30
2018-03-07T17:24:52.440Z,67.40
2018-03-07T17:27:26.441Z,67.50
2018-03-07T17:30:00.568Z,68.40
2018-03-07T17:32:34.525Z,69.20
2018-03-07T17:35:08.752Z,69.30
2018-03-07T17:37:42.914Z,69.80
2018-03-07T17:40:18.387Z,69.30
2018-03-07T17:42:53.066Z,69.40
2018-03-07T17:45:28.089Z,69.70
2018-03-07T17:48:02.102Z,69.60
2018-03-07T17:50:36.123Z,69.20
2018-03-07T17:53:10.856Z,68.80
2018-03-07T17:55:44.966Z,68.80
2018-03-07T17:58:19.849Z,70.10
2018-03-07T18:00:53.475Z,70.00
2018-03-07T18:03:27.516Z,70.90
2018-03-07T18:06:02.225Z,72.20
2018-03-07T18:08:36.120Z,72.40
2018-03-07T18:11:10.126Z,73.00
2018-03-07T18:13:44.156Z,75.00
2018-03-07T18:16:18.659Z,76.80
2018-03-07T18:18:53.100Z,78.20
2018-03-07T18:21:27.089Z,78.20
2018-03-07T18:24:02.733Z,76.30
2018-03-07T18:26:36.744Z,76.20
2018-03-07T18:29:11.502Z,76.00
2018-03-07T18:31:45.653Z,76.00
2018-03-07T18:34:20.328Z,78.40
2018-03-07T18:36:55.226Z,79.50
2018-03-07T18:39:30.175Z,80.30
2018-03-07T18:42:04.692Z,81.00
2018-03-07T18:44:38.521Z,81.00
2018-03-07T18:47:13.019Z,81.80
2018-03-07T18:49:48.051Z,81.90
2018-03-07T18:52:22.063Z,81.80
2018-03-07T18:54:57.099Z,82.90
2018-03-07T18:57:32.048Z,83.40
2018-03-07T19:00:05.975Z,83.40
2018-03-07T19:02:39.738Z,83.40
2018-03-07T19:05:13.949Z,83.90
2018-03-07T19:07:47.845Z,84.20
2018-03-07T19:10:21.879Z,83.90
2018-03-07T19:12:55.743Z,83.70
2018-03-07T19:15:29.814Z,84.10
2018-03-07T19:18:03.796Z,84.40
2018-03-07T19:20:38.492Z,85.00
2018-03-07T19:23:12.534Z,85.50
2018-03-07T19:25:46.459Z,85.80
2018-03-07T19:28:20.493Z,86.90
2018-03-07T19:30:54.761Z,88.10
2018-03-07T19:33:29.681Z,88.30
2018-03-07T19:36:04.295Z,88.70
2018-03-07T19:38:39.019Z,89.30
2018-03-07T19:41:13.590Z,89.30
2018-03-07T19:43:47.570Z,89.80
2018-03-07T19:46:22.568Z,90.30
2018-03-07T19:48:56.600Z,90.30
2018-03-07T19:51:30.277Z,90.80
2018-03-07T19:54:04.089Z,90.80
2018-03-07T19:56:39.378Z,91.00
2018-03-07T19:59:13.169Z,91.00
2018-03-07T20:04:41.433Z,91.90
2018-03-07T20:07:16.057Z,92.10
2018-03-07T20:09:50.822Z,92.20
2018-03-07T20:12:24.841Z,92.20
2018-03-07T20:14:59.846Z,92.70
2018-03-07T20:17:34.002Z,92.70
2018-03-07T20:20:08.124Z,92.70
2018-03-07T20:22:42.311Z,92.40
2018-03-07T20:25:16.264Z,92.50
2018-03-07T20:27:50.202Z,92.30
2018-03-07T20:30:24.745Z,92.20
2018-03-07T20:32:59.531Z,92.30
2018-03-07T20:35:33.570Z,92.30
2018-03-07T20:38:07.577Z,92.00
2018-03-07T20:40:41.280Z,92.40
2018-03-07T20:43:14.905Z,92.20
2018-03-07T20:45:48.829Z,92.00
2018-03-07T20:48:22.911Z,92.10
2018-03-07T20:50:57.197Z,92.90
2018-03-07T20:53:31.491Z,92.80
2018-03-07T20:56:05.358Z,92.90
2018-03-07T20:58:39.024Z,92.90
2018-03-07T21:01:12.748Z,92.80
2018-03-07T21:03:47.773Z,92.70
2018-03-07T21:06:21.381Z,92.70
2018-03-07T21:08:56.576Z,92.30
2018-03-07T21:11:30.208Z,92.30
2018-03-07T21:14:04.423Z,92.20
2018-03-07T21:16:38.844Z,92.10
2018-03-07T21:19:12.864Z,92.00
2018-03-07T21:21:47.272Z,92.00
2018-03-07T21:24:21.997Z,91.90
2018-03-07T21:26:56.460Z,92.00
2018-03-07T21:29:30.295Z,92.00
2018-03-07T21:32:05.052Z,92.00
2018-03-07T21:34:38.741Z,92.10
2018-03-07T21:37:12.517Z,92.10
2018-03-07T21:39:46.702Z,92.10
2018-03-07T21:42:21.091Z,92.10
2018-03-07T21:44:55.295Z,92.00
2018-03-07T21:47:29.090Z,92.10
2018-03-07T21:50:02.798Z,92.30
2018-03-07T21:52:36.990Z,92.30
2018-03-07T21:55:11.931Z,92.70
2018-03-07T21:57:46.436Z,92.80
2018-03-07T22:00:20.176Z,92.80
2018-03-07T22:02:54.867Z,93.00
2018-03-07T22:05:29.617Z,93.00
2018-03-07T22:08:03.965Z,93.00
2018-03-07T22:10:38.344Z,93.40
2018-03-07T22:13:12.384Z,93.40
2018-03-07T22:15:46.804Z,93.60
2018-03-07T22:18:20.513Z,93.70
2018-03-07T22:20:54.208Z,93.80
2018-03-07T22:23:28.761Z,94.10
2018-03-07T22:26:02.729Z,94.10
2018-03-07T22:28:36.341Z,94.10
2018-03-07T22:31:10.156Z,94.30
2018-03-07T22:33:43.893Z,94.30
2018-03-07T22:36:17.452Z,94.40
2018-03-07T22:38:51.469Z,94.50
2018-03-07T22:41:25.125Z,94.40
2018-03-07T22:43:59.958Z,94.40
2018-03-07T22:46:33.880Z,94.50
2018-03-07T22:49:07.471Z,94.40
2018-03-07T22:51:41.305Z,94.40
2018-03-07T22:54:16.328Z,94.50
2018-03-07T22:56:50.861Z,94.60
2018-03-07T22:59:25.059Z,94.60
2018-03-07T23:01:59.030Z,94.70
2018-03-07T23:04:33.743Z,94.50
2018-03-07T23:07:07.523Z,94.50
2018-03-07T23:09:41.846Z,94.40
2018-03-07T23:12:16.303Z,94.40
2018-03-07T23:14:50.473Z,94.60
2018-03-07T23:17:25.340Z,94.60
2018-03-07T23:19:58.890Z,94.60
2018-03-07T23:22:32.577Z,94.60
2018-03-07T23:25:07.273Z,94.70
2018-03-07T23:27:41.287Z,94.70
2018-03-07T23:30:15.308Z,94.80
2018-03-07T23:32:49.610Z,95.00
2018-03-07T23:35:23.314Z,95.10
2018-03-07T23:37:57.108Z,95.60
2018-03-07T23:40:32.000Z,95.50
2018-03-07T23:43:05.748Z,95.50
2018-03-07T23:45:39.484Z,95.50
2018-03-07T23:48:13.568Z,95.50
2018-03-07T23:50:48.297Z,95.70
2018-03-07T23:53:22.740Z,95.90
2018-03-07T23:55:56.695Z,95.80
2018-03-07T23:58:31.271Z,96.10
